Arma, Kansas
Current Conditions -  °F | °C
As of 9:55 AM on Tuesday 21 Oct 2014 (Local Time) from KPTS Reporting Station
Moderate Fog Moderate Fog  
Wind Chill: 56°   Ceiling: 100
Heat Index: NA   Visibility: 0mi
Dew Point: 56°   Wind: 0mph
Humidity: NA   Direction: NA
Pressure: 30.13"   Gusts: NA
Location:  37.54°N, 94.7°W
Report Text: KPTS 211455Z AUTO 00000KT M1/4SM FG OVC001 13/14 A3013 RMK AO2 T01330135
Loading
Personal Weather Stations






























Interactive Weather Map New forecast layout! Learn more

10-Day Weather Forecast

Advertisements
Track Severe Weather on mobile